createdAt,value
2023-01-13T00:00:58.234Z,-0.37
2023-01-13T00:03:25.183Z,-0.38
2023-01-13T00:05:51.728Z,-0.38
2023-01-13T00:08:18.280Z,-0.38
2023-01-13T00:10:47.478Z,-0.37
2023-01-13T00:13:14.424Z,-0.36
2023-01-13T00:15:40.982Z,-0.34
2023-01-13T00:18:07.620Z,-0.34
2023-01-13T00:20:34.454Z,-0.32
2023-01-13T00:23:00.995Z,-0.30
2023-01-13T00:25:27.845Z,-0.28
2023-01-13T00:27:54.392Z,-0.26
2023-01-13T00:30:21.231Z,-0.24
2023-01-13T00:32:47.774Z,-0.24
2023-01-13T00:35:14.332Z,-0.23
2023-01-13T00:37:40.857Z,-0.24
2023-01-13T00:40:08.615Z,-0.27
2023-01-13T00:42:35.105Z,-0.31
2023-01-13T00:45:01.715Z,-0.32
2023-01-13T00:47:28.348Z,-0.32
2023-01-13T00:49:55.693Z,-0.29
2023-01-13T00:52:22.267Z,-0.26
2023-01-13T00:54:49.103Z,-0.24
2023-01-13T00:57:15.647Z,-0.22
2023-01-13T00:59:42.284Z,-0.23
2023-01-13T01:02:08.983Z,-0.23
2023-01-13T01:04:35.677Z,-0.22
2023-01-13T01:07:02.423Z,-0.21
2023-01-13T01:09:29.067Z,-0.19
2023-01-13T01:11:55.627Z,-0.19
2023-01-13T01:14:22.260Z,-0.18
2023-01-13T01:16:49.099Z,-0.18
2023-01-13T01:19:15.643Z,-0.16
2023-01-13T01:21:42.181Z,-0.14
2023-01-13T01:24:09.991Z,-0.13
2023-01-13T01:26:36.597Z,-0.11
2023-01-13T01:29:03.136Z,-0.11
2023-01-13T01:31:32.165Z,-0.10
2023-01-13T01:33:59.967Z,-0.09
2023-01-13T01:36:27.883Z,-0.07
2023-01-13T01:38:56.991Z,-0.04
2023-01-13T01:41:25.879Z,0.01
2023-01-13T01:43:57.855Z,0.09
2023-01-13T01:46:24.738Z,0.15
2023-01-13T01:48:51.644Z,0.18
2023-01-13T01:51:18.385Z,0.18
2023-01-13T01:53:45.036Z,0.19
2023-01-13T01:56:11.776Z,0.17
2023-01-13T01:58:46.511Z,0.13
2023-01-13T02:01:14.765Z,0.12
2023-01-13T02:03:47.075Z,0.16
2023-01-13T02:06:14.814Z,0.17
2023-01-13T02:08:41.491Z,0.14
2023-01-13T02:11:08.336Z,0.13
2023-01-13T02:13:34.882Z,0.13
2023-01-13T02:16:22.150Z,0.19
2023-01-13T02:19:33.400Z,0.16
2023-01-13T02:22:37.932Z,0.26
2023-01-13T02:25:40.123Z,0.42
2023-01-13T02:28:42.287Z,0.42
2023-01-13T02:31:15.252Z,0.42
2023-01-13T02:34:09.569Z,0.42
2023-01-13T02:36:42.191Z,0.37
2023-01-13T02:39:35.531Z,0.36
2023-01-13T02:42:07.909Z,0.36
2023-01-13T02:44:46.848Z,0.37
2023-01-13T02:47:21.331Z,0.36
2023-01-13T02:49:56.308Z,0.37
2023-01-13T02:52:41.073Z,0.39
2023-01-13T02:55:16.014Z,0.39
2023-01-13T02:57:44.993Z,0.40
2023-01-13T03:00:13.493Z,0.40
2023-01-13T03:02:40.196Z,0.39
2023-01-13T03:05:07.413Z,0.40
2023-01-13T03:08:11.339Z,0.38
2023-01-13T03:10:59.164Z,0.38
2023-01-13T03:13:36.965Z,0.37
2023-01-13T03:16:31.452Z,0.36
2023-01-13T03:19:05.602Z,0.37
2023-01-13T03:21:35.198Z,0.37
2023-01-13T03:24:20.677Z,0.36
2023-01-13T03:27:06.181Z,0.31
2023-01-13T03:29:41.318Z,0.25
2023-01-13T03:32:18.084Z,0.22
2023-01-13T03:34:50.240Z,0.18
2023-01-13T03:37:20.984Z,0.19
2023-01-13T03:39:53.099Z,0.25
2023-01-13T03:42:25.968Z,0.31
2023-01-13T03:44:59.680Z,0.38
2023-01-13T03:47:48.108Z,0.56
2023-01-13T03:50:28.322Z,0.90
2023-01-13T03:53:02.391Z,0.97
2023-01-13T03:55:34.755Z,0.98
2023-01-13T03:58:20.013Z,0.97
2023-01-13T04:01:11.327Z,1.01
2023-01-13T04:04:03.512Z,0.99
2023-01-13T04:06:39.399Z,0.96
2023-01-13T04:09:15.742Z,0.92
2023-01-13T04:12:08.310Z,0.90
2023-01-13T04:14:36.516Z,0.91
2023-01-13T04:17:03.324Z,0.86
2023-01-13T04:19:29.787Z,0.83
2023-01-13T04:21:56.369Z,0.81
2023-01-13T04:24:22.964Z,0.77
2023-01-13T04:26:49.548Z,0.71
2023-01-13T04:29:16.138Z,0.63
2023-01-13T04:31:43.111Z,0.57
2023-01-13T04:34:13.447Z,0.53
2023-01-13T04:36:40.171Z,0.47
2023-01-13T04:39:06.643Z,0.46
2023-01-13T04:41:33.087Z,0.46
2023-01-13T04:43:59.530Z,0.47
2023-01-13T04:46:26.118Z,0.48
2023-01-13T04:48:52.598Z,0.48
2023-01-13T04:51:19.006Z,0.48
2023-01-13T04:53:45.547Z,0.49
2023-01-13T04:56:12.096Z,0.48
2023-01-13T04:58:38.549Z,0.50
2023-01-13T05:01:05.117Z,0.52
2023-01-13T05:03:31.810Z,0.53
2023-01-13T05:05:58.348Z,0.56
2023-01-13T05:08:24.905Z,0.55
2023-01-13T05:10:51.424Z,0.54
2023-01-13T05:13:18.078Z,0.55
2023-01-13T05:15:44.674Z,0.58
2023-01-13T05:18:11.872Z,0.59
2023-01-13T05:20:38.989Z,0.58
2023-01-13T05:23:05.563Z,0.56
2023-01-13T05:25:33.715Z,0.56
2023-01-13T05:28:00.745Z,0.55
2023-01-13T05:30:29.732Z,0.55
2023-01-13T05:32:56.881Z,0.53
2023-01-13T05:35:24.213Z,0.52
2023-01-13T05:37:50.913Z,0.53
2023-01-13T05:40:18.939Z,0.52
2023-01-13T05:42:45.501Z,0.54
2023-01-13T05:45:12.940Z,0.51
2023-01-13T05:47:39.688Z,0.49
2023-01-13T05:50:06.736Z,0.49
2023-01-13T05:52:33.390Z,0.50
2023-01-13T05:54:59.934Z,0.51
2023-01-13T05:57:26.405Z,0.51
2023-01-13T05:59:53.015Z,0.52
2023-01-13T06:02:19.424Z,0.53
2023-01-13T06:04:46.044Z,0.52
2023-01-13T06:07:12.630Z,0.49
2023-01-13T06:09:39.063Z,0.50
2023-01-13T06:12:06.299Z,0.52
2023-01-13T06:14:32.781Z,0.54
2023-01-13T06:16:59.820Z,0.56
2023-01-13T06:19:26.463Z,0.57
2023-01-13T06:21:56.380Z,0.58
2023-01-13T06:24:22.984Z,0.58
2023-01-13T06:26:49.514Z,0.60
2023-01-13T06:29:16.033Z,0.61
2023-01-13T06:31:43.263Z,0.63
2023-01-13T06:34:14.159Z,0.65
2023-01-13T06:36:46.159Z,0.68
2023-01-13T06:39:18.171Z,0.69
2023-01-13T06:41:47.475Z,0.72
2023-01-13T06:44:14.242Z,0.75
2023-01-13T06:46:40.806Z,0.78
2023-01-13T06:49:08.216Z,0.80
2023-01-13T06:51:35.038Z,0.84
2023-01-13T06:54:01.746Z,0.89
2023-01-13T06:56:28.207Z,1.01
2023-01-13T06:58:54.663Z,1.15
2023-01-13T07:01:21.401Z,1.29
2023-01-13T07:03:48.161Z,1.40
2023-01-13T07:06:14.619Z,1.48
2023-01-13T07:08:41.258Z,1.52
2023-01-13T07:11:07.765Z,1.51
2023-01-13T07:13:37.031Z,1.50
2023-01-13T07:16:06.080Z,1.50
2023-01-13T07:18:35.249Z,1.50
2023-01-13T07:21:07.158Z,1.50
2023-01-13T07:23:36.409Z,1.48
2023-01-13T07:26:03.458Z,1.45
2023-01-13T07:28:30.675Z,1.44
2023-01-13T07:30:58.220Z,1.42
2023-01-13T07:33:25.481Z,1.45
2023-01-13T07:36:00.179Z,1.48
2023-01-13T07:38:27.308Z,1.49
2023-01-13T07:40:53.776Z,1.51
2023-01-13T07:43:20.373Z,1.52
2023-01-13T07:45:47.034Z,1.56
2023-01-13T07:48:13.725Z,1.61
2023-01-13T07:50:41.560Z,1.68
2023-01-13T07:53:09.179Z,1.71
2023-01-13T07:55:35.625Z,1.71
2023-01-13T07:58:02.289Z,1.73
2023-01-13T08:00:29.010Z,1.74
2023-01-13T08:02:55.477Z,1.80
2023-01-13T08:05:22.032Z,1.85
2023-01-13T08:07:48.425Z,1.90
2023-01-13T08:10:15.179Z,1.94
2023-01-13T08:12:41.599Z,1.99
2023-01-13T08:15:20.213Z,2.07
2023-01-13T08:17:46.734Z,2.16
2023-01-13T08:20:13.255Z,2.25
2023-01-13T08:22:39.638Z,2.34
2023-01-13T08:25:06.761Z,2.44
2023-01-13T08:27:34.173Z,2.54
2023-01-13T08:30:00.649Z,2.61
2023-01-13T08:32:27.269Z,2.69
2023-01-13T08:34:53.988Z,2.73
2023-01-13T08:37:20.528Z,2.75
2023-01-13T08:39:47.167Z,2.77
2023-01-13T08:42:13.603Z,2.77
2023-01-13T08:44:40.073Z,2.80
2023-01-13T08:47:06.596Z,2.84
2023-01-13T08:49:33.145Z,2.94
2023-01-13T08:51:59.886Z,3.06
2023-01-13T08:54:26.440Z,3.19
2023-01-13T08:56:52.935Z,3.29
2023-01-13T08:59:20.377Z,3.39
2023-01-13T09:01:47.044Z,3.50
2023-01-13T09:04:19.868Z,3.57
2023-01-13T09:06:48.041Z,3.60
2023-01-13T09:09:15.082Z,3.61
2023-01-13T09:11:44.157Z,3.63
2023-01-13T09:14:10.729Z,3.68
2023-01-13T09:16:37.257Z,3.78
2023-01-13T09:19:03.678Z,3.88
2023-01-13T09:21:30.441Z,3.93
2023-01-13T09:23:56.873Z,3.97
2023-01-13T09:26:23.421Z,4.07
2023-01-13T09:28:50.067Z,4.20
2023-01-13T09:31:16.693Z,4.37
2023-01-13T09:33:43.255Z,4.51
2023-01-13T09:36:09.760Z,4.60
2023-01-13T09:38:36.180Z,4.69
2023-01-13T09:41:02.654Z,4.79
2023-01-13T09:43:37.808Z,4.89
2023-01-13T09:46:31.026Z,5.03
2023-01-13T09:48:59.146Z,5.19
2023-01-13T09:51:39.137Z,5.33
2023-01-13T09:54:20.504Z,5.42
2023-01-13T09:56:47.220Z,5.52
2023-01-13T09:59:14.721Z,5.60
2023-01-13T10:02:00.287Z,5.71
2023-01-13T10:04:27.862Z,5.81
2023-01-13T10:07:02.673Z,5.92
2023-01-13T10:09:49.089Z,5.99
2023-01-13T10:12:22.743Z,6.03
2023-01-13T10:14:55.596Z,6.09
2023-01-13T10:17:48.035Z,6.18
2023-01-13T10:20:20.253Z,6.28
2023-01-13T10:23:03.090Z,6.36
2023-01-13T10:25:37.098Z,6.47
2023-01-13T10:28:14.109Z,6.57
2023-01-13T10:30:43.359Z,6.70
2023-01-13T10:33:32.527Z,6.86
2023-01-13T10:36:12.697Z,7.05
2023-01-13T10:38:41.433Z,7.21
2023-01-13T10:41:17.038Z,7.32
2023-01-13T10:43:58.521Z,7.40
2023-01-13T10:46:25.071Z,7.55
2023-01-13T10:48:54.468Z,7.64
2023-01-13T10:51:29.664Z,7.71
2023-01-13T10:53:59.327Z,7.77
2023-01-13T10:56:29.908Z,7.79
2023-01-13T10:59:16.982Z,7.86
2023-01-13T11:02:24.859Z,7.92
2023-01-13T11:04:58.731Z,8.07
2023-01-13T11:07:35.709Z,8.20
2023-01-13T11:10:23.609Z,8.29
2023-01-13T11:13:05.544Z,8.35
2023-01-13T11:15:55.398Z,8.45
2023-01-13T11:18:39.476Z,8.51
2023-01-13T11:21:37.073Z,8.57
2023-01-13T11:24:35.838Z,8.62
2023-01-13T11:27:13.746Z,8.68
2023-01-13T11:30:17.674Z,8.62
2023-01-13T11:32:53.415Z,8.67
2023-01-13T11:35:21.909Z,8.70
2023-01-13T11:37:53.719Z,8.72
2023-01-13T11:40:41.668Z,8.74
2023-01-13T11:43:35.130Z,8.74
2023-01-13T11:46:01.906Z,8.70
2023-01-13T11:48:32.487Z,8.68
2023-01-13T11:51:10.930Z,8.66
2023-01-13T11:54:03.542Z,8.61
2023-01-13T11:56:45.868Z,8.59
2023-01-13T11:59:12.462Z,8.57
2023-01-13T12:02:01.073Z,8.54
2023-01-13T12:04:38.960Z,8.47
2023-01-13T12:07:17.126Z,8.46
2023-01-13T12:10:13.092Z,8.45
2023-01-13T12:12:54.193Z,8.47
2023-01-13T12:15:20.949Z,8.53
2023-01-13T12:18:11.830Z,8.55
2023-01-13T12:20:56.882Z,8.54
2023-01-13T12:23:35.241Z,8.54
2023-01-13T12:26:08.028Z,8.53
2023-01-13T12:28:53.806Z,8.57
2023-01-13T12:31:22.429Z,8.60
2023-01-13T12:34:04.864Z,8.64
2023-01-13T12:36:47.639Z,8.64
2023-01-13T12:39:24.208Z,8.63
2023-01-13T12:42:06.275Z,8.60
2023-01-13T12:44:32.752Z,8.55
2023-01-13T12:47:00.672Z,8.50
2023-01-13T12:49:35.089Z,8.43
2023-01-13T12:52:07.528Z,8.35
2023-01-13T12:54:53.936Z,8.31
2023-01-13T12:57:26.963Z,8.27
2023-01-13T12:59:59.362Z,8.26
2023-01-13T13:03:09.862Z,8.24
2023-01-13T13:05:51.184Z,8.15
2023-01-13T13:08:22.931Z,8.06
2023-01-13T13:11:18.433Z,7.99
2023-01-13T13:13:48.675Z,7.94
2023-01-13T13:16:27.168Z,7.91
2023-01-13T13:19:19.507Z,7.87
2023-01-13T13:22:14.347Z,7.84
2023-01-13T13:24:42.705Z,7.82
2023-01-13T13:27:21.681Z,7.81
2023-01-13T13:30:01.844Z,7.79
2023-01-13T13:32:56.086Z,7.74
2023-01-13T13:35:55.431Z,7.68
2023-01-13T13:39:26.823Z,7.64
2023-01-13T13:42:12.151Z,7.60
2023-01-13T13:44:48.131Z,7.56
2023-01-13T13:47:15.067Z,7.53
2023-01-13T13:49:45.820Z,7.52
2023-01-13T13:52:22.269Z,7.48
2023-01-13T13:54:55.595Z,7.44
2023-01-13T13:57:25.194Z,7.40
2023-01-13T13:59:55.844Z,7.36
2023-01-13T14:02:47.053Z,7.33
2023-01-13T14:05:18.507Z,7.23
2023-01-13T14:07:48.309Z,7.16
2023-01-13T14:10:23.227Z,7.09
2023-01-13T14:12:49.849Z,7.02
2023-01-13T14:15:28.645Z,6.96
2023-01-13T14:17:55.265Z,6.91
2023-01-13T14:20:21.932Z,6.85
2023-01-13T14:22:51.556Z,6.80
2023-01-13T14:25:38.923Z,6.75
2023-01-13T14:28:28.678Z,6.70
2023-01-13T14:30:57.165Z,6.66
2023-01-13T14:33:38.648Z,6.63
2023-01-13T14:36:17.349Z,6.60
2023-01-13T14:38:47.200Z,6.56
2023-01-13T14:41:21.703Z,6.53
2023-01-13T14:43:51.128Z,6.51
2023-01-13T14:46:17.961Z,6.47
2023-01-13T14:48:46.411Z,6.43
2023-01-13T14:51:21.714Z,6.41
2023-01-13T14:53:49.380Z,6.40
2023-01-13T14:56:52.269Z,6.36
2023-01-13T14:59:41.880Z,6.29
2023-01-13T15:02:30.358Z,6.17
2023-01-13T15:05:17.739Z,6.06
2023-01-13T15:07:54.628Z,6.04
2023-01-13T15:10:25.482Z,6.01
2023-01-13T15:12:54.414Z,5.97
2023-01-13T15:15:30.959Z,5.95
2023-01-13T15:17:57.567Z,5.93
2023-01-13T15:20:24.954Z,5.97
2023-01-13T15:22:52.908Z,6.01
2023-01-13T15:25:19.943Z,6.09
2023-01-13T15:27:48.605Z,6.17
2023-01-13T15:30:23.819Z,6.25
2023-01-13T15:32:51.971Z,6.33
2023-01-13T15:35:20.141Z,6.38
2023-01-13T15:37:49.255Z,6.41
2023-01-13T15:40:25.604Z,6.45
2023-01-13T15:42:52.150Z,6.45
2023-01-13T15:45:18.545Z,6.43
2023-01-13T15:47:45.192Z,6.44
2023-01-13T15:50:16.642Z,6.46
2023-01-13T15:52:43.159Z,6.47
2023-01-13T15:55:10.960Z,6.50
2023-01-13T15:57:39.487Z,6.53
2023-01-13T16:00:19.785Z,6.56
2023-01-13T16:02:46.622Z,6.59
2023-01-13T16:05:13.348Z,6.60
2023-01-13T16:07:39.813Z,6.63
2023-01-13T16:10:14.894Z,6.65
2023-01-13T16:12:41.406Z,6.66
2023-01-13T16:15:08.522Z,6.68
2023-01-13T16:17:35.540Z,6.67
2023-01-13T16:20:02.231Z,6.70
2023-01-13T16:22:28.637Z,6.70
2023-01-13T16:24:55.092Z,6.70
2023-01-13T16:27:24.228Z,6.68
2023-01-13T16:29:52.516Z,6.66
2023-01-13T16:32:19.129Z,6.61
2023-01-13T16:34:45.695Z,6.58
2023-01-13T16:37:20.123Z,6.54
2023-01-13T16:39:48.011Z,6.51
2023-01-13T16:42:14.963Z,6.47
2023-01-13T16:44:41.601Z,6.45
2023-01-13T16:47:16.673Z,6.42
2023-01-13T16:49:43.908Z,6.43
2023-01-13T16:52:10.782Z,6.43
2023-01-13T16:54:37.242Z,6.44
2023-01-13T16:57:04.050Z,6.45
2023-01-13T16:59:30.471Z,6.46
2023-01-13T17:01:56.985Z,6.47
2023-01-13T17:04:23.713Z,6.48
2023-01-13T17:07:07.570Z,6.49
2023-01-13T17:09:34.383Z,6.50
2023-01-13T17:12:01.612Z,6.49
2023-01-13T17:14:28.073Z,6.50
2023-01-13T17:16:57.956Z,6.49
2023-01-13T17:19:24.902Z,6.49
2023-01-13T17:21:51.499Z,6.48
2023-01-13T17:24:18.141Z,6.46
2023-01-13T17:26:49.851Z,6.44
2023-01-13T17:29:22.382Z,6.41
2023-01-13T17:31:50.481Z,6.40
2023-01-13T17:34:18.010Z,6.37
2023-01-13T17:36:44.861Z,6.35
2023-01-13T17:39:21.443Z,6.34
2023-01-13T17:41:48.279Z,6.33
2023-01-13T17:44:16.962Z,6.32
2023-01-13T17:46:44.217Z,6.32
2023-01-13T17:49:11.877Z,6.32
2023-01-13T17:51:38.311Z,6.32
2023-01-13T17:54:04.865Z,6.32
2023-01-13T17:56:31.687Z,6.33
2023-01-13T17:58:58.198Z,6.33
2023-01-13T18:01:24.768Z,6.33
2023-01-13T18:03:51.543Z,6.32
2023-01-13T18:06:22.066Z,6.32
2023-01-13T18:08:49.944Z,6.31
2023-01-13T18:11:18.306Z,6.29
2023-01-13T18:13:49.008Z,6.27
2023-01-13T18:16:17.708Z,6.25
2023-01-13T18:18:47.673Z,6.22
2023-01-13T18:21:25.654Z,6.18
2023-01-13T18:23:52.858Z,6.13
2023-01-13T18:26:20.806Z,6.10
2023-01-13T18:28:47.352Z,6.07
2023-01-13T18:31:13.907Z,6.04
2023-01-13T18:33:40.400Z,6.00
2023-01-13T18:36:08.032Z,5.96
2023-01-13T18:38:34.529Z,5.91
2023-01-13T18:41:00.977Z,5.87
2023-01-13T18:43:27.528Z,5.81
2023-01-13T18:45:53.996Z,5.74
2023-01-13T18:48:20.620Z,5.71
2023-01-13T18:50:47.149Z,5.69
2023-01-13T18:53:13.638Z,5.68
2023-01-13T18:55:40.227Z,5.67
2023-01-13T18:58:06.780Z,5.66
2023-01-13T19:00:33.526Z,5.66
2023-01-13T19:05:34.192Z,5.62
2023-01-13T19:08:00.714Z,5.58
2023-01-13T19:10:27.357Z,5.55
2023-01-13T19:12:53.995Z,5.53
2023-01-13T19:15:20.656Z,5.50
2023-01-13T19:17:47.088Z,5.45
2023-01-13T19:20:13.576Z,5.38
2023-01-13T19:22:40.372Z,5.36
2023-01-13T19:25:07.100Z,5.33
2023-01-13T19:27:33.587Z,5.31
2023-01-13T19:30:00.083Z,5.30
2023-01-13T19:32:27.986Z,5.30
2023-01-13T19:34:55.160Z,5.25
2023-01-13T19:37:21.834Z,5.14
2023-01-13T19:39:48.281Z,5.06
2023-01-13T19:42:14.850Z,4.99
2023-01-13T19:44:41.387Z,4.93
2023-01-13T19:47:07.932Z,4.87
2023-01-13T19:49:34.579Z,4.82
2023-01-13T19:52:01.107Z,4.77
2023-01-13T19:54:28.013Z,4.71
2023-01-13T19:56:54.577Z,4.63
2023-01-13T19:59:21.153Z,4.56
2023-01-13T20:01:50.663Z,4.48
2023-01-13T20:04:17.530Z,4.42
2023-01-13T20:06:44.556Z,4.32
2023-01-13T20:09:11.611Z,4.23
2023-01-13T20:11:38.457Z,4.17
2023-01-13T20:14:05.307Z,4.11
2023-01-13T20:16:32.052Z,4.07
2023-01-13T20:18:58.899Z,4.04
2023-01-13T20:21:25.438Z,4.02
2023-01-13T20:23:53.045Z,4.02
2023-01-13T20:26:20.879Z,4.03
2023-01-13T20:28:47.933Z,4.05
2023-01-13T20:31:15.842Z,4.06
2023-01-13T20:33:42.648Z,4.07
2023-01-13T20:36:27.625Z,4.07
2023-01-13T20:38:58.106Z,4.08
2023-01-13T20:41:25.112Z,4.10
2023-01-13T20:43:52.946Z,4.13
2023-01-13T20:46:20.078Z,4.14
2023-01-13T20:48:46.864Z,4.15
2023-01-13T20:51:14.316Z,4.18
2023-01-13T20:53:40.771Z,4.18
2023-01-13T20:56:08.757Z,4.22
2023-01-13T20:58:38.436Z,4.24
2023-01-13T21:01:05.707Z,4.25
2023-01-13T21:03:32.495Z,4.26
2023-01-13T21:05:59.009Z,4.25
2023-01-13T21:08:25.713Z,4.22
2023-01-13T21:10:52.282Z,4.17
2023-01-13T21:13:18.711Z,4.10
2023-01-13T21:15:48.535Z,4.06
2023-01-13T21:18:15.048Z,4.03
2023-01-13T21:20:41.618Z,4.01
2023-01-13T21:23:08.885Z,3.98
2023-01-13T21:25:35.643Z,3.96
2023-01-13T21:28:02.672Z,3.95
2023-01-13T21:30:29.223Z,3.97
2023-01-13T21:32:55.668Z,3.98
2023-01-13T21:35:22.213Z,3.97
2023-01-13T21:37:48.725Z,3.98
2023-01-13T21:40:15.682Z,3.97
2023-01-13T21:42:42.221Z,3.97
2023-01-13T21:45:10.385Z,3.94
2023-01-13T21:47:36.945Z,3.94
2023-01-13T21:50:06.941Z,3.93
2023-01-13T21:52:33.509Z,3.93
2023-01-13T21:54:59.941Z,3.93
2023-01-13T21:57:27.727Z,3.92
2023-01-13T21:59:54.399Z,3.91
2023-01-13T22:02:23.917Z,3.93
2023-01-13T22:04:51.421Z,3.94
2023-01-13T22:07:18.911Z,3.95
2023-01-13T22:09:45.421Z,3.97
2023-01-13T22:12:12.061Z,3.98
2023-01-13T22:14:38.601Z,4.00
2023-01-13T22:17:05.258Z,4.01
2023-01-13T22:19:31.687Z,4.02
2023-01-13T22:21:58.618Z,4.01
2023-01-13T22:24:25.177Z,4.01
2023-01-13T22:26:51.638Z,4.01
2023-01-13T22:29:18.104Z,4.02
2023-01-13T22:31:44.615Z,4.01
2023-01-13T22:34:12.467Z,3.99
2023-01-13T22:36:39.004Z,4.00
2023-01-13T22:39:05.449Z,3.99
2023-01-13T22:41:32.151Z,3.99
2023-01-13T22:43:58.881Z,3.99
2023-01-13T22:46:25.311Z,4.00
2023-01-13T22:48:51.737Z,4.01
2023-01-13T22:51:18.220Z,4.02
2023-01-13T22:53:45.122Z,4.02
2023-01-13T22:56:20.440Z,4.03
2023-01-13T22:58:46.981Z,4.03
2023-01-13T23:01:16.237Z,4.03
2023-01-13T23:03:43.342Z,4.03
2023-01-13T23:06:09.878Z,4.02
2023-01-13T23:08:36.725Z,4.01
2023-01-13T23:11:09.982Z,3.99
2023-01-13T23:13:37.805Z,3.97
2023-01-13T23:16:08.512Z,3.92
2023-01-13T23:18:35.374Z,3.88
2023-01-13T23:21:07.753Z,3.84
2023-01-13T23:23:34.801Z,3.81
2023-01-13T23:26:27.660Z,3.78
2023-01-13T23:28:58.582Z,3.76
2023-01-13T23:31:25.042Z,3.76
2023-01-13T23:33:51.590Z,3.73
2023-01-13T23:36:20.765Z,3.72
2023-01-13T23:38:47.746Z,3.70
2023-01-13T23:41:16.707Z,3.69
2023-01-13T23:43:43.459Z,3.69
2023-01-13T23:46:13.363Z,3.66
2023-01-13T23:48:40.449Z,3.62
2023-01-13T23:51:10.613Z,3.63
2023-01-13T23:53:46.600Z,3.62
2023-01-13T23:56:19.115Z,3.61
2023-01-13T23:58:46.517Z,3.59
